createdAt,value
2023-04-29T00:01:12.841Z,70.23
2023-04-29T00:03:41.103Z,70.01
2023-04-29T00:06:11.605Z,69.73
2023-04-29T00:08:40.455Z,69.76
2023-04-29T00:11:08.437Z,69.72
2023-04-29T00:13:36.568Z,70.24
2023-04-29T00:16:05.656Z,70.07
2023-04-29T00:18:34.148Z,69.98
2023-04-29T00:21:02.352Z,70.17
2023-04-29T00:23:30.600Z,70.18
2023-04-29T00:25:58.779Z,70.64
2023-04-29T00:28:26.854Z,70.48
2023-04-29T00:30:56.442Z,70.40
2023-04-29T00:33:24.744Z,70.21
2023-04-29T00:35:53.120Z,70.10
2023-04-29T00:38:21.429Z,69.92
2023-04-29T00:40:50.279Z,69.97
2023-04-29T00:43:18.350Z,69.76
2023-04-29T00:45:47.248Z,69.22
2023-04-29T00:48:16.142Z,69.19
2023-04-29T00:50:44.157Z,69.16
2023-04-29T00:53:13.111Z,69.03
2023-04-29T00:55:42.436Z,69.18
2023-04-29T00:58:12.101Z,69.24
2023-04-29T01:00:42.014Z,69.10
2023-04-29T01:03:11.013Z,69.28
2023-04-29T01:05:39.694Z,69.42
2023-04-29T01:08:31.877Z,69.54
2023-04-29T01:11:02.977Z,69.69
2023-04-29T01:13:35.449Z,69.77
2023-04-29T01:16:11.647Z,69.84
2023-04-29T01:18:45.587Z,69.91
2023-04-29T01:21:18.242Z,70.22
2023-04-29T01:23:46.488Z,70.26
2023-04-29T01:26:15.268Z,70.36
2023-04-29T01:29:28.913Z,70.96
2023-04-29T01:32:05.688Z,71.07
2023-04-29T01:35:01.112Z,71.04
2023-04-29T01:37:42.274Z,71.30
2023-04-29T01:40:17.821Z,71.14
2023-04-29T01:43:03.531Z,70.99
2023-04-29T01:45:34.762Z,71.26
2023-04-29T01:48:05.031Z,71.39
2023-04-29T01:50:33.360Z,71.30
2023-04-29T01:53:09.421Z,71.52
2023-04-29T01:55:37.808Z,71.81
2023-04-29T01:58:20.533Z,72.25
2023-04-29T02:01:03.773Z,72.18
2023-04-29T02:03:33.330Z,72.17
2023-04-29T02:06:02.950Z,72.17
2023-04-29T02:08:31.330Z,72.08
2023-04-29T02:11:00.557Z,72.10
2023-04-29T02:13:42.255Z,71.77
2023-04-29T02:16:13.353Z,71.91
2023-04-29T02:18:48.600Z,72.21
2023-04-29T02:21:16.899Z,72.18
2023-04-29T02:23:45.066Z,72.30
2023-04-29T02:26:14.254Z,72.42
2023-04-29T02:28:42.531Z,72.54
2023-04-29T02:31:10.608Z,72.36
2023-04-29T02:33:38.788Z,72.75
2023-04-29T02:36:06.851Z,72.72
2023-04-29T02:38:34.780Z,72.83
2023-04-29T02:41:02.825Z,72.86
2023-04-29T02:43:31.584Z,72.79
2023-04-29T02:46:00.628Z,72.95
2023-04-29T02:48:29.258Z,72.89
2023-04-29T02:50:57.272Z,72.91
2023-04-29T02:53:25.708Z,73.14
2023-04-29T02:55:53.713Z,72.65
2023-04-29T02:58:22.354Z,72.61
2023-04-29T03:00:51.265Z,72.36
2023-04-29T03:03:19.657Z,72.08
2023-04-29T03:05:47.812Z,72.52
2023-04-29T03:08:16.506Z,72.50
2023-04-29T03:10:44.777Z,72.73
2023-04-29T03:13:13.058Z,72.91
2023-04-29T03:15:41.322Z,72.90
2023-04-29T03:18:09.993Z,72.93
2023-04-29T03:20:38.602Z,73.13
2023-04-29T03:23:06.767Z,73.24
2023-04-29T03:25:37.239Z,73.34
2023-04-29T03:28:05.581Z,73.34
2023-04-29T03:30:33.846Z,72.30
2023-04-29T03:33:02.119Z,72.16
2023-04-29T03:35:30.735Z,72.35
2023-04-29T03:38:19.052Z,72.15
2023-04-29T03:40:48.048Z,71.88
2023-04-29T03:43:17.142Z,71.57
2023-04-29T03:45:45.756Z,71.25
2023-04-29T03:48:15.436Z,71.02
2023-04-29T03:50:43.715Z,71.01
2023-04-29T03:53:12.960Z,70.83
2023-04-29T03:55:41.084Z,70.80
2023-04-29T03:58:10.756Z,70.76
2023-04-29T04:00:38.984Z,70.39
2023-04-29T04:03:09.499Z,70.16
2023-04-29T04:05:39.519Z,69.87
2023-04-29T04:08:11.381Z,69.75
2023-04-29T04:10:45.290Z,69.91
2023-04-29T04:13:43.464Z,69.64
2023-04-29T04:16:11.880Z,69.49
2023-04-29T04:18:40.636Z,69.35
2023-04-29T04:21:12.842Z,69.41
2023-04-29T04:23:44.183Z,69.28
2023-04-29T04:26:14.165Z,69.07
2023-04-29T04:28:48.181Z,68.96
2023-04-29T04:31:29.513Z,68.66
2023-04-29T04:33:59.931Z,68.54
2023-04-29T04:36:28.784Z,68.43
2023-04-29T04:38:57.161Z,68.24
2023-04-29T04:41:25.735Z,68.26
2023-04-29T04:43:54.839Z,68.18
2023-04-29T04:46:43.377Z,68.23
2023-04-29T04:49:16.872Z,68.15
2023-04-29T04:51:51.698Z,67.88
2023-04-29T04:54:20.611Z,67.62
2023-04-29T04:56:52.444Z,67.48
2023-04-29T04:59:21.061Z,67.13
2023-04-29T05:01:49.328Z,67.02
2023-04-29T05:04:17.523Z,66.44
2023-04-29T05:06:46.927Z,66.24
2023-04-29T05:09:15.094Z,65.93
2023-04-29T05:11:43.467Z,65.76
2023-04-29T05:14:13.821Z,65.70
2023-04-29T05:16:43.899Z,65.80
2023-04-29T05:19:12.830Z,65.41
2023-04-29T05:21:41.899Z,65.03
2023-04-29T05:24:11.273Z,64.84
2023-04-29T05:26:39.495Z,64.40
2023-04-29T05:29:07.837Z,64.24
2023-04-29T05:31:44.215Z,63.87
2023-04-29T05:34:12.303Z,64.22
2023-04-29T05:36:40.360Z,64.69
2023-04-29T05:39:08.331Z,64.73
2023-04-29T05:41:36.627Z,64.52
2023-04-29T05:44:07.417Z,63.62
2023-04-29T05:46:35.621Z,63.24
2023-04-29T05:49:04.007Z,63.08
2023-04-29T05:51:32.992Z,61.92
2023-04-29T05:54:01.179Z,61.86
2023-04-29T05:56:31.585Z,61.26
2023-04-29T05:58:59.864Z,60.52
2023-04-29T06:01:28.145Z,60.44
2023-04-29T06:03:57.232Z,60.38
2023-04-29T06:06:26.135Z,60.08
2023-04-29T06:09:26.482Z,59.44
2023-04-29T06:11:56.572Z,59.42
2023-04-29T06:14:24.763Z,58.92
2023-04-29T06:16:53.952Z,57.91
2023-04-29T06:19:22.431Z,58.34
2023-04-29T06:21:51.224Z,57.67
2023-04-29T06:24:19.506Z,57.55
2023-04-29T06:26:49.007Z,56.80
2023-04-29T06:29:17.177Z,56.51
2023-04-29T06:31:45.742Z,55.63
2023-04-29T06:34:13.936Z,55.62
2023-04-29T06:37:08.050Z,53.75
2023-04-29T06:39:52.911Z,54.70
2023-04-29T06:42:39.894Z,55.00
2023-04-29T06:45:40.120Z,55.00
2023-04-29T06:48:21.301Z,52.74
2023-04-29T06:50:58.048Z,52.76
2023-04-29T06:53:26.257Z,52.33
2023-04-29T06:55:55.269Z,52.27
2023-04-29T06:58:23.416Z,52.37
2023-04-29T07:00:52.253Z,52.04
2023-04-29T07:03:20.562Z,51.48
2023-04-29T07:05:48.768Z,51.45
2023-04-29T07:08:16.937Z,50.85
2023-04-29T07:10:45.016Z,50.03
2023-04-29T07:13:13.085Z,49.26
2023-04-29T07:15:41.464Z,49.19
2023-04-29T07:18:09.554Z,50.03
2023-04-29T07:20:37.915Z,50.46
2023-04-29T07:23:06.225Z,48.56
2023-04-29T07:25:34.464Z,48.55
2023-04-29T07:28:02.616Z,48.34
2023-04-29T07:30:30.891Z,49.21
2023-04-29T07:32:59.019Z,48.19
2023-04-29T07:35:27.743Z,46.96
2023-04-29T07:37:57.180Z,46.53
2023-04-29T07:40:26.706Z,46.22
2023-04-29T07:42:58.960Z,46.87
2023-04-29T07:45:27.226Z,46.21
2023-04-29T07:47:55.380Z,46.81
2023-04-29T07:50:23.870Z,46.05
2023-04-29T07:52:52.163Z,45.57
2023-04-29T07:55:21.363Z,45.00
2023-04-29T07:57:49.437Z,45.28
2023-04-29T08:00:18.136Z,44.77
2023-04-29T08:02:55.888Z,43.65
2023-04-29T08:05:25.520Z,41.81
2023-04-29T08:07:54.236Z,42.55
2023-04-29T08:10:22.839Z,42.64
2023-04-29T08:12:51.383Z,42.05
2023-04-29T08:15:20.476Z,43.94
2023-04-29T08:17:48.614Z,43.03
2023-04-29T08:20:16.955Z,42.65
2023-04-29T08:22:45.003Z,42.24
2023-04-29T08:25:13.084Z,41.45
2023-04-29T08:27:43.802Z,41.20
2023-04-29T08:30:12.862Z,40.81
2023-04-29T08:32:40.803Z,40.15
2023-04-29T08:35:09.622Z,39.21
2023-04-29T08:37:38.054Z,38.85
2023-04-29T08:40:08.247Z,39.25
2023-04-29T08:42:37.911Z,38.87
2023-04-29T08:45:07.469Z,37.43
2023-04-29T08:47:37.337Z,36.16
2023-04-29T08:50:06.686Z,36.00
2023-04-29T08:52:34.662Z,35.93
2023-04-29T08:55:03.420Z,38.17
2023-04-29T08:57:40.142Z,37.58
2023-04-29T09:00:13.405Z,37.38
2023-04-29T09:02:51.718Z,37.77
2023-04-29T09:05:20.707Z,37.39
2023-04-29T09:07:51.038Z,36.74
2023-04-29T09:10:19.771Z,36.41
2023-04-29T09:12:47.916Z,34.80
2023-04-29T09:15:16.096Z,36.19
2023-04-29T09:17:48.802Z,36.35
2023-04-29T09:20:22.853Z,35.10
2023-04-29T09:22:52.985Z,35.38
2023-04-29T09:25:21.989Z,36.00
2023-04-29T09:27:51.395Z,35.16
2023-04-29T09:30:19.746Z,35.49
2023-04-29T09:33:08.574Z,35.81
2023-04-29T09:35:37.121Z,35.49
2023-04-29T09:38:16.049Z,34.92
2023-04-29T09:40:58.144Z,34.87
2023-04-29T09:43:27.664Z,34.42
2023-04-29T09:45:55.848Z,33.64
2023-04-29T09:48:32.713Z,34.33
2023-04-29T09:51:03.393Z,34.91
2023-04-29T09:53:32.159Z,33.81
2023-04-29T09:56:04.056Z,33.58
2023-04-29T09:58:37.883Z,33.96
2023-04-29T10:01:07.660Z,34.17
2023-04-29T10:03:38.652Z,33.31
2023-04-29T10:06:08.344Z,33.13
2023-04-29T10:08:36.364Z,32.77
2023-04-29T10:11:06.061Z,32.61
2023-04-29T10:13:38.564Z,32.64
2023-04-29T10:16:12.963Z,32.25
2023-04-29T10:18:45.012Z,32.56
2023-04-29T10:21:14.078Z,32.56
2023-04-29T10:23:45.313Z,32.59
2023-04-29T10:26:17.059Z,32.61
2023-04-29T10:28:48.138Z,31.91
2023-04-29T10:31:18.268Z,31.36
2023-04-29T10:33:47.883Z,31.19
2023-04-29T10:36:17.692Z,31.83
2023-04-29T10:38:51.954Z,32.06
2023-04-29T10:41:27.126Z,31.91
2023-04-29T10:43:55.921Z,32.64
2023-04-29T10:46:29.019Z,32.46
2023-04-29T10:49:05.113Z,31.20
2023-04-29T10:51:45.932Z,31.34
2023-04-29T10:54:15.776Z,31.50
2023-04-29T10:56:51.492Z,31.42
2023-04-29T10:59:28.893Z,31.72
2023-04-29T11:01:57.057Z,31.03
2023-04-29T11:04:26.132Z,30.75
2023-04-29T11:06:58.205Z,30.97
2023-04-29T11:09:34.278Z,31.20
2023-04-29T11:12:03.683Z,30.34
2023-04-29T11:14:40.670Z,30.92
2023-04-29T11:17:13.291Z,30.66
2023-04-29T11:19:46.761Z,30.14
2023-04-29T11:22:17.988Z,30.39
2023-04-29T11:24:56.465Z,29.59
2023-04-29T11:27:27.387Z,29.17
2023-04-29T11:30:00.576Z,28.85
2023-04-29T11:32:36.605Z,28.38
2023-04-29T11:35:09.540Z,28.73
2023-04-29T11:37:38.119Z,28.49
2023-04-29T11:40:08.008Z,27.78
2023-04-29T11:42:40.838Z,27.46
2023-04-29T11:45:09.449Z,27.38
2023-04-29T11:47:37.622Z,26.49
2023-04-29T11:50:08.872Z,26.31
2023-04-29T11:52:38.413Z,24.82
2023-04-29T11:55:09.419Z,24.52
2023-04-29T11:57:39.330Z,24.93
2023-04-29T12:00:13.148Z,24.00
2023-04-29T12:02:46.550Z,24.38
2023-04-29T12:05:17.589Z,23.59
2023-04-29T12:07:46.458Z,24.51
2023-04-29T12:10:14.356Z,23.59
2023-04-29T12:12:44.296Z,23.55
2023-04-29T12:15:13.471Z,25.48
2023-04-29T12:17:43.736Z,25.78
2023-04-29T12:20:12.891Z,24.38
2023-04-29T12:22:44.165Z,24.18
2023-04-29T12:25:12.824Z,24.08
2023-04-29T12:27:44.381Z,23.07
2023-04-29T12:30:13.054Z,24.31
2023-04-29T12:32:42.183Z,25.67
2023-04-29T12:35:18.167Z,26.24
2023-04-29T12:37:51.102Z,26.53
2023-04-29T12:40:20.918Z,26.24
2023-04-29T12:42:49.278Z,26.97
2023-04-29T12:45:32.103Z,26.87
2023-04-29T12:48:01.934Z,25.76
2023-04-29T12:50:39.025Z,25.98
2023-04-29T12:53:08.896Z,26.46
2023-04-29T12:55:38.467Z,26.45
2023-04-29T12:58:07.723Z,26.74
2023-04-29T13:00:37.614Z,26.72
2023-04-29T13:03:07.409Z,26.74
2023-04-29T13:05:35.920Z,26.85
2023-04-29T13:08:06.991Z,26.73
2023-04-29T13:10:36.142Z,26.06
2023-04-29T13:13:04.228Z,25.78
2023-04-29T13:15:33.531Z,26.13
2023-04-29T13:18:02.598Z,25.94
2023-04-29T13:20:30.962Z,26.65
2023-04-29T13:22:59.275Z,26.41
2023-04-29T13:25:27.556Z,25.81
2023-04-29T13:27:55.737Z,25.37
2023-04-29T13:30:23.960Z,24.74
2023-04-29T13:32:55.519Z,24.39
2023-04-29T13:35:28.040Z,25.08
2023-04-29T13:37:57.139Z,24.59
2023-04-29T13:40:28.088Z,24.42
2023-04-29T13:43:04.352Z,23.73
2023-04-29T13:45:38.922Z,23.83
2023-04-29T13:48:24.678Z,23.79
2023-04-29T13:59:08.968Z,22.70
2023-04-29T14:02:00.295Z,22.33
2023-04-29T14:04:06.926Z,23.06
2023-04-29T14:06:35.102Z,23.04
2023-04-29T14:09:04.221Z,23.66
2023-04-29T14:11:36.670Z,23.12
2023-04-29T14:14:05.155Z,22.61
2023-04-29T14:16:33.287Z,22.32
2023-04-29T14:19:03.835Z,21.81
2023-04-29T14:21:33.811Z,21.86
2023-04-29T14:24:03.601Z,22.11
2023-04-29T14:26:32.275Z,22.04
2023-04-29T14:29:00.639Z,22.64
2023-04-29T14:31:31.338Z,22.38
2023-04-29T14:33:59.878Z,22.55
2023-04-29T14:36:28.456Z,22.14
2023-04-29T14:38:56.728Z,23.02
2023-04-29T14:41:25.803Z,23.17
2023-04-29T14:43:54.022Z,23.36
2023-04-29T14:46:22.775Z,23.15
2023-04-29T14:48:50.960Z,22.95
2023-04-29T14:51:19.050Z,23.77
2023-04-29T14:53:47.119Z,24.29
2023-04-29T14:56:17.936Z,24.73
2023-04-29T14:58:45.953Z,24.95
2023-04-29T15:01:14.174Z,24.27
2023-04-29T15:03:44.744Z,23.89
2023-04-29T15:06:14.254Z,23.59
2023-04-29T15:08:42.395Z,23.49
2023-04-29T15:11:10.796Z,23.74
2023-04-29T15:13:39.380Z,23.76
2023-04-29T15:16:08.427Z,23.63
2023-04-29T15:18:36.836Z,23.53
2023-04-29T15:21:05.240Z,24.18
2023-04-29T15:23:33.517Z,23.62
2023-04-29T15:26:01.565Z,23.97
2023-04-29T15:28:29.744Z,24.22
2023-04-29T15:30:59.956Z,24.51
2023-04-29T15:33:28.027Z,24.18
2023-04-29T15:35:57.141Z,23.28
2023-04-29T15:38:25.615Z,23.26
2023-04-29T15:40:59.416Z,23.92
2023-04-29T15:43:28.418Z,24.38
2023-04-29T15:45:57.263Z,24.92
2023-04-29T15:48:25.340Z,24.80
2023-04-29T15:50:53.856Z,25.19
2023-04-29T15:53:23.470Z,25.58
2023-04-29T15:55:51.834Z,26.32
2023-04-29T15:58:19.907Z,26.80
2023-04-29T16:00:48.139Z,27.29
2023-04-29T16:03:16.540Z,27.58
2023-04-29T16:05:45.145Z,27.54
2023-04-29T16:08:13.432Z,27.52
2023-04-29T16:10:41.811Z,27.43
2023-04-29T16:13:09.989Z,27.69
2023-04-29T16:15:38.475Z,27.80
2023-04-29T16:18:06.747Z,27.87
2023-04-29T16:20:34.912Z,28.01
2023-04-29T16:23:03.303Z,27.86
2023-04-29T16:25:31.470Z,27.83
2023-04-29T16:27:59.543Z,27.88
2023-04-29T16:30:28.332Z,27.86
2023-04-29T16:32:56.393Z,28.11
2023-04-29T16:35:26.676Z,28.62
2023-04-29T16:37:58.088Z,29.07
2023-04-29T16:40:26.460Z,29.27
2023-04-29T16:42:54.710Z,29.41
2023-04-29T16:45:25.269Z,29.72
2023-04-29T16:47:54.808Z,30.14
2023-04-29T16:50:23.162Z,30.45
2023-04-29T16:52:51.647Z,30.89
2023-04-29T16:55:19.891Z,31.06
2023-04-29T16:57:47.979Z,31.05
2023-04-29T17:00:16.356Z,31.32
2023-04-29T17:02:46.746Z,31.55
2023-04-29T17:05:19.005Z,31.76
2023-04-29T17:07:47.526Z,31.94
2023-04-29T17:10:15.605Z,32.19
2023-04-29T17:12:44.293Z,32.50
2023-04-29T17:15:12.471Z,32.41
2023-04-29T17:17:40.662Z,32.96
2023-04-29T17:20:09.472Z,33.18
2023-04-29T17:22:37.498Z,33.23
2023-04-29T17:25:08.471Z,33.82
2023-04-29T17:27:37.734Z,33.92
2023-04-29T17:30:06.452Z,34.29
2023-04-29T17:32:39.352Z,34.11
2023-04-29T17:35:09.609Z,35.41
2023-04-29T17:37:38.337Z,36.20
2023-04-29T17:40:07.217Z,36.39
2023-04-29T17:42:35.277Z,36.98
2023-04-29T17:45:03.761Z,37.75
2023-04-29T17:47:31.959Z,38.10
2023-04-29T17:50:01.946Z,38.16
2023-04-29T17:52:31.682Z,38.57
2023-04-29T17:54:59.739Z,38.91
2023-04-29T17:57:31.087Z,39.63
2023-04-29T17:59:59.234Z,40.16
2023-04-29T18:02:27.808Z,40.47
2023-04-29T18:04:56.424Z,40.75
2023-04-29T18:07:24.921Z,41.55
2023-04-29T18:09:53.105Z,41.83
2023-04-29T18:12:22.699Z,42.25
2023-04-29T18:14:51.922Z,42.11
2023-04-29T18:17:20.177Z,42.43
2023-04-29T18:19:49.732Z,42.81
2023-04-29T18:22:17.780Z,43.27
2023-04-29T18:24:48.545Z,43.13
2023-04-29T18:27:16.749Z,43.75
2023-04-29T18:29:45.459Z,43.88
2023-04-29T18:32:13.650Z,43.88
2023-04-29T18:34:42.517Z,44.58
2023-04-29T18:37:11.400Z,44.98
2023-04-29T18:39:39.563Z,45.14
2023-04-29T18:42:07.636Z,45.42
2023-04-29T18:44:35.550Z,45.99
2023-04-29T18:47:03.682Z,46.34
2023-04-29T18:49:31.827Z,46.91
2023-04-29T18:52:01.561Z,47.25
2023-04-29T18:54:29.652Z,46.99
2023-04-29T18:56:58.866Z,47.73
2023-04-29T18:59:27.061Z,47.71
2023-04-29T19:01:55.320Z,47.30
2023-04-29T19:04:23.717Z,47.27
2023-04-29T19:06:52.055Z,47.39
2023-04-29T19:09:20.320Z,47.87
2023-04-29T19:11:48.394Z,48.19
2023-04-29T19:14:16.670Z,48.27
2023-04-29T19:16:44.736Z,47.97
2023-04-29T19:19:12.689Z,48.05
2023-04-29T19:21:40.885Z,48.72
2023-04-29T19:24:09.070Z,49.09
2023-04-29T19:26:39.481Z,49.63
2023-04-29T19:29:08.380Z,49.79
2023-04-29T19:31:36.462Z,50.16
2023-04-29T19:34:04.515Z,50.69
2023-04-29T19:36:33.404Z,50.96
2023-04-29T19:39:03.971Z,50.98
2023-04-29T19:41:34.569Z,51.41
2023-04-29T19:44:03.158Z,51.48
2023-04-29T19:46:31.695Z,51.44
2023-04-29T19:49:00.137Z,51.74
2023-04-29T19:51:28.351Z,51.96
2023-04-29T19:53:56.874Z,52.31
2023-04-29T19:56:24.952Z,52.78
2023-04-29T19:58:53.344Z,52.56
2023-04-29T20:01:21.466Z,53.18
2023-04-29T20:03:49.714Z,53.57
2023-04-29T20:06:17.901Z,53.60
2023-04-29T20:08:46.542Z,53.32
2023-04-29T20:11:15.031Z,54.19
2023-04-29T20:13:43.191Z,54.43
2023-04-29T20:16:11.499Z,54.47
2023-04-29T20:18:41.079Z,54.33
2023-04-29T20:21:09.154Z,54.69
2023-04-29T20:23:37.221Z,55.06
2023-04-29T20:26:05.503Z,55.79
2023-04-29T20:28:33.651Z,56.39
2023-04-29T20:31:01.844Z,56.52
2023-04-29T20:33:30.154Z,56.68
2023-04-29T20:36:05.461Z,56.62
2023-04-29T20:38:35.271Z,56.74
2023-04-29T20:41:05.953Z,56.67
2023-04-29T20:43:34.237Z,56.50
2023-04-29T20:46:03.251Z,56.75
2023-04-29T20:48:31.597Z,56.74
2023-04-29T20:50:59.627Z,57.07
2023-04-29T20:53:27.939Z,57.28
2023-04-29T20:55:55.979Z,57.59
2023-04-29T20:58:24.154Z,57.88
2023-04-29T21:00:52.225Z,58.04
2023-04-29T21:03:22.465Z,58.17
2023-04-29T21:05:54.748Z,58.35
2023-04-29T21:08:23.101Z,58.33
2023-04-29T21:10:51.483Z,58.47
2023-04-29T21:13:19.662Z,58.91
2023-04-29T21:15:48.018Z,59.24
2023-04-29T21:18:16.369Z,59.71
2023-04-29T21:20:44.792Z,59.88
2023-04-29T21:23:12.884Z,60.19
2023-04-29T21:25:41.233Z,60.30
2023-04-29T21:28:09.320Z,60.01
2023-04-29T21:30:37.628Z,60.53
2023-04-29T21:33:06.021Z,60.45
2023-04-29T21:35:34.243Z,60.18
2023-04-29T21:38:02.434Z,59.93
2023-04-29T21:40:30.609Z,60.06
2023-04-29T21:42:59.481Z,59.71
2023-04-29T21:45:27.767Z,59.80
2023-04-29T21:48:04.038Z,60.17
2023-04-29T21:50:33.017Z,60.58
2023-04-29T21:53:01.088Z,60.53
2023-04-29T21:55:29.154Z,61.08
2023-04-29T21:57:57.228Z,61.15
2023-04-29T22:00:33.268Z,61.43
2023-04-29T22:03:06.236Z,61.24
2023-04-29T22:05:35.615Z,61.25
2023-04-29T22:08:07.404Z,61.24
2023-04-29T22:10:35.696Z,61.94
2023-04-29T22:13:03.690Z,61.93
2023-04-29T22:15:32.070Z,61.88
2023-04-29T22:18:00.208Z,61.80
2023-04-29T22:20:28.619Z,61.44
2023-04-29T22:22:57.308Z,60.79
2023-04-29T22:25:25.579Z,60.99
2023-04-29T22:27:53.656Z,61.46
2023-04-29T22:30:21.822Z,61.73
2023-04-29T22:32:50.064Z,61.76
2023-04-29T22:35:18.387Z,62.25
2023-04-29T22:37:46.566Z,62.52
2023-04-29T22:40:14.943Z,62.72
2023-04-29T22:42:43.218Z,62.46
2023-04-29T22:45:12.537Z,62.99
2023-04-29T22:47:40.966Z,62.69
2023-04-29T22:50:10.404Z,63.22
2023-04-29T22:52:38.421Z,63.24
2023-04-29T22:55:07.241Z,63.05
2023-04-29T22:57:35.422Z,63.14
2023-04-29T23:00:03.793Z,63.65
2023-04-29T23:02:31.926Z,63.71
2023-04-29T23:05:00.147Z,63.73
2023-04-29T23:07:28.941Z,63.69
2023-04-29T23:09:57.039Z,63.77
2023-04-29T23:12:25.342Z,64.38
2023-04-29T23:14:53.980Z,64.59
2023-04-29T23:17:22.247Z,63.85
2023-04-29T23:19:50.301Z,64.05
2023-04-29T23:22:18.607Z,64.19
2023-04-29T23:24:46.659Z,64.07
2023-04-29T23:27:14.749Z,64.22
2023-04-29T23:29:42.815Z,64.28
2023-04-29T23:32:10.993Z,64.53
2023-04-29T23:34:39.328Z,64.02
2023-04-29T23:37:07.442Z,64.39
2023-04-29T23:39:35.604Z,64.45
2023-04-29T23:42:03.722Z,64.71
2023-04-29T23:44:31.761Z,64.77
2023-04-29T23:46:59.834Z,64.99
2023-04-29T23:49:28.643Z,65.15
2023-04-29T23:51:56.791Z,65.29
2023-04-29T23:54:24.870Z,65.28
2023-04-29T23:56:52.946Z,65.31
2023-04-29T23:59:20.914Z,65.05
